KMWH

Grant Co International Airport

Moses Lake, Washington, USA
KMWH 210522Z 2106/2206 30006KT P6SM SKC FM211900 22007KT P6SM SKC FM220300 30006KT P6SM SKC
Issued Valid From Valid To
Jul-21 @ 05:22 UTC
(5 hours ago)
Jul-21 @ 06:00 UTC
(4 hours ago)
Jul-22 @ 06:00 UTC
(in 20 hours)
Jul-21 @ 06:00 to Jul-21 @ 19:00
KMWH 210522Z 2106/2206 30006KT P6SM SKC
Wind Visibility Clouds
300° at 6 knots Greater than 6 miles
  • Clear skies
From Jul-21 @ 19:00 to Jul-22 @ 03:00
FM211900 22007KT P6SM SKC
Wind Visibility Clouds
220° at 7 knots Greater than 6 miles
  • Clear skies
From Jul-22 @ 03:00 to Jul-22 @ 06:00
FM220300 30006KT P6SM SKC
Wind Visibility Clouds
300° at 6 knots Greater than 6 miles
  • Clear skies
KMWH 210522Z 2106/2206 30006KT P6SM SKC FM211900 22007KT P6SM SKC FM220300 30006KT P6SM SKC
Issued Jul-21 @ 05:22 UTC
(5 hours ago)
Valid From Jul-21 @ 06:00 UTC
(4 hours ago)
Valid To Jul-22 @ 06:00 UTC
(in 20 hours)
Jul-21 @ 06:00 - Jul-21 @ 19:00
Wind Visibility
300° at 6 knots Greater than 6 miles
Clouds
  • Clear skies
From Jul-21 @ 19:00 - Jul-22 @ 03:00
Wind Visibility
220° at 7 knots Greater than 6 miles
Clouds
  • Clear skies
From Jul-22 @ 03:00 - Jul-22 @ 06:00
Wind Visibility
300° at 6 knots Greater than 6 miles
Clouds
  • Clear skies